sensor_id;sensor_type;location;lat;lon;timestamp;pressure;altitude;pressure_sealevel;temperature;humidity
59873;BME280;50750;51.636;4.948;2023-08-20T00:00:12;102182.29;;;24.87;60.60
59873;BME280;50750;51.636;4.948;2023-08-20T00:03:03;102181.60;;;24.86;60.68
59873;BME280;50750;51.636;4.948;2023-08-20T00:05:31;102186.98;;;24.86;60.63
59873;BME280;50750;51.636;4.948;2023-08-20T00:07:57;102185.05;;;24.86;60.66
59873;BME280;50750;51.636;4.948;2023-08-20T00:10:24;102185.10;;;24.85;60.64
59873;BME280;50750;51.636;4.948;2023-08-20T00:12:50;102188.35;;;24.85;60.78
59873;BME280;50750;51.636;4.948;2023-08-20T00:15:17;102193.06;;;24.84;60.65
59873;BME280;50750;51.636;4.948;2023-08-20T00:17:45;102195.38;;;24.84;60.67
59873;BME280;50750;51.636;4.948;2023-08-20T00:20:14;102204.86;;;24.84;60.60
59873;BME280;50750;51.636;4.948;2023-08-20T00:22:41;102204.63;;;24.85;60.74
59873;BME280;50750;51.636;4.948;2023-08-20T00:25:09;102207.65;;;24.86;60.69
59873;BME280;50750;51.636;4.948;2023-08-20T00:27:35;102210.34;;;24.86;60.67
59873;BME280;50750;51.636;4.948;2023-08-20T00:30:02;102216.36;;;24.86;60.79
59873;BME280;50750;51.636;4.948;2023-08-20T00:32:30;102220.08;;;24.87;60.79
59873;BME280;50750;51.636;4.948;2023-08-20T00:34:56;102224.17;;;24.87;60.69
59873;BME280;50750;51.636;4.948;2023-08-20T00:37:23;102229.20;;;24.88;60.59
59873;BME280;50750;51.636;4.948;2023-08-20T00:39:49;102232.62;;;24.87;60.64
59873;BME280;50750;51.636;4.948;2023-08-20T00:42:16;102236.39;;;24.87;60.52
59873;BME280;50750;51.636;4.948;2023-08-20T00:44:42;102242.48;;;24.87;60.60
59873;BME280;50750;51.636;4.948;2023-08-20T00:47:12;102250.02;;;24.87;60.64
59873;BME280;50750;51.636;4.948;2023-08-20T00:49:39;102254.19;;;24.86;60.54
59873;BME280;50750;51.636;4.948;2023-08-20T00:52:11;102260.11;;;24.86;60.65
59873;BME280;50750;51.636;4.948;2023-08-20T00:54:40;102266.07;;;24.86;60.61
59873;BME280;50750;51.636;4.948;2023-08-20T00:57:07;102266.98;;;24.85;60.68
59873;BME280;50750;51.636;4.948;2023-08-20T00:59:34;102260.58;;;24.84;60.65
59873;BME280;50750;51.636;4.948;2023-08-20T01:02:01;102262.59;;;24.84;60.70
59873;BME280;50750;51.636;4.948;2023-08-20T01:04:29;102265.45;;;24.84;60.67
59873;BME280;50750;51.636;4.948;2023-08-20T01:07:24;102267.84;;;24.83;60.72
59873;BME280;50750;51.636;4.948;2023-08-20T01:12:45;102264.57;;;24.81;60.60
59873;BME280;50750;51.636;4.948;2023-08-20T01:15:12;102263.89;;;24.81;60.48
59873;BME280;50750;51.636;4.948;2023-08-20T01:17:43;102262.30;;;24.80;60.74
59873;BME280;50750;51.636;4.948;2023-08-20T01:20:12;102256.23;;;24.80;60.77
59873;BME280;50750;51.636;4.948;2023-08-20T01:30:49;102257.61;;;24.81;60.54
59873;BME280;50750;51.636;4.948;2023-08-20T01:33:17;102261.13;;;24.82;60.68
59873;BME280;50750;51.636;4.948;2023-08-20T01:35:43;102262.90;;;24.82;60.55
59873;BME280;50750;51.636;4.948;2023-08-20T01:38:10;102265.95;;;24.82;60.57
59873;BME280;50750;51.636;4.948;2023-08-20T01:40:36;102271.89;;;24.81;60.62
59873;BME280;50750;51.636;4.948;2023-08-20T01:43:03;102274.39;;;24.82;60.60
59873;BME280;50750;51.636;4.948;2023-08-20T01:45:29;102277.05;;;24.82;60.68
59873;BME280;50750;51.636;4.948;2023-08-20T01:47:56;102275.83;;;24.82;60.61
59873;BME280;50750;51.636;4.948;2023-08-20T01:50:22;102277.80;;;24.82;60.61
59873;BME280;50750;51.636;4.948;2023-08-20T01:52:48;102277.85;;;24.81;60.59
59873;BME280;50750;51.636;4.948;2023-08-20T01:55:15;102276.42;;;24.81;60.65
59873;BME280;50750;51.636;4.948;2023-08-20T01:57:41;102275.05;;;24.80;60.73
59873;BME280;50750;51.636;4.948;2023-08-20T02:00:08;102272.20;;;24.80;60.59
59873;BME280;50750;51.636;4.948;2023-08-20T02:02:35;102274.58;;;24.79;60.68
59873;BME280;50750;51.636;4.948;2023-08-20T02:05:01;102278.21;;;24.78;60.71
59873;BME280;50750;51.636;4.948;2023-08-20T02:07:29;102281.27;;;24.78;60.63
59873;BME280;50750;51.636;4.948;2023-08-20T02:09:55;102282.05;;;24.77;60.57
59873;BME280;50750;51.636;4.948;2023-08-20T02:12:21;102284.23;;;24.77;60.64
59873;BME280;50750;51.636;4.948;2023-08-20T02:14:48;102282.27;;;24.77;60.64
59873;BME280;50750;51.636;4.948;2023-08-20T02:17:15;102281.60;;;24.76;60.65
59873;BME280;50750;51.636;4.948;2023-08-20T02:19:42;102281.99;;;24.75;60.60
59873;BME280;50750;51.636;4.948;2023-08-20T02:22:08;102280.98;;;24.75;60.69
59873;BME280;50750;51.636;4.948;2023-08-20T02:24:34;102275.64;;;24.74;60.60
59873;BME280;50750;51.636;4.948;2023-08-20T02:27:01;102276.00;;;24.74;60.63
59873;BME280;50750;51.636;4.948;2023-08-20T02:29:27;102278.17;;;24.74;60.57
59873;BME280;50750;51.636;4.948;2023-08-20T02:31:54;102278.30;;;24.74;60.58
59873;BME280;50750;51.636;4.948;2023-08-20T02:34:20;102278.95;;;24.75;60.58
59873;BME280;50750;51.636;4.948;2023-08-20T02:36:47;102275.49;;;24.76;60.55
59873;BME280;50750;51.636;4.948;2023-08-20T02:39:15;102280.64;;;24.77;60.49
59873;BME280;50750;51.636;4.948;2023-08-20T02:41:43;102281.89;;;24.77;60.57
59873;BME280;50750;51.636;4.948;2023-08-20T02:44:09;102281.48;;;24.78;60.53
59873;BME280;50750;51.636;4.948;2023-08-20T02:46:35;102278.27;;;24.78;60.50
59873;BME280;50750;51.636;4.948;2023-08-20T02:49:04;102271.96;;;24.78;60.48
59873;BME280;50750;51.636;4.948;2023-08-20T02:51:30;102264.13;;;24.78;60.59
59873;BME280;50750;51.636;4.948;2023-08-20T02:53:57;102262.85;;;24.78;60.43
59873;BME280;50750;51.636;4.948;2023-08-20T02:56:23;102266.64;;;24.77;60.51
59873;BME280;50750;51.636;4.948;2023-08-20T02:58:49;102265.59;;;24.77;60.46
59873;BME280;50750;51.636;4.948;2023-08-20T03:01:23;102268.50;;;24.76;60.50
59873;BME280;50750;51.636;4.948;2023-08-20T03:03:50;102273.38;;;24.76;60.50
59873;BME280;50750;51.636;4.948;2023-08-20T03:06:17;102272.34;;;24.75;60.44
59873;BME280;50750;51.636;4.948;2023-08-20T03:08:43;102269.17;;;24.74;60.41
59873;BME280;50750;51.636;4.948;2023-08-20T03:11:09;102270.30;;;24.74;60.38
59873;BME280;50750;51.636;4.948;2023-08-20T03:13:36;102270.19;;;24.73;60.42
59873;BME280;50750;51.636;4.948;2023-08-20T03:16:02;102264.84;;;24.72;60.42
59873;BME280;50750;51.636;4.948;2023-08-20T03:18:29;102265.99;;;24.71;60.50
59873;BME280;50750;51.636;4.948;2023-08-20T03:20:56;102272.27;;;24.71;60.44
59873;BME280;50750;51.636;4.948;2023-08-20T03:23:23;102268.08;;;24.69;60.41
59873;BME280;50750;51.636;4.948;2023-08-20T03:25:50;102271.68;;;24.69;60.37
59873;BME280;50750;51.636;4.948;2023-08-20T03:28:21;102277.09;;;24.68;60.48
59873;BME280;50750;51.636;4.948;2023-08-20T03:30:47;102280.70;;;24.68;60.62
59873;BME280;50750;51.636;4.948;2023-08-20T03:33:14;102281.11;;;24.67;60.51
59873;BME280;50750;51.636;4.948;2023-08-20T03:35:41;102282.04;;;24.67;60.50
59873;BME280;50750;51.636;4.948;2023-08-20T03:38:07;102285.45;;;24.66;60.41
59873;BME280;50750;51.636;4.948;2023-08-20T03:40:34;102286.91;;;24.66;60.47
59873;BME280;50750;51.636;4.948;2023-08-20T03:43:00;102284.04;;;24.66;60.58
59873;BME280;50750;51.636;4.948;2023-08-20T03:45:28;102285.23;;;24.67;60.44
59873;BME280;50750;51.636;4.948;2023-08-20T03:47:56;102289.27;;;24.68;60.49
59873;BME280;50750;51.636;4.948;2023-08-20T03:50:23;102287.83;;;24.68;60.60
59873;BME280;50750;51.636;4.948;2023-08-20T03:52:49;102281.95;;;24.68;60.49
59873;BME280;50750;51.636;4.948;2023-08-20T03:55:16;102282.43;;;24.69;60.45
59873;BME280;50750;51.636;4.948;2023-08-20T03:57:42;102279.40;;;24.69;60.40
59873;BME280;50750;51.636;4.948;2023-08-20T04:00:09;102285.30;;;24.69;60.40
59873;BME280;50750;51.636;4.948;2023-08-20T04:02:36;102285.85;;;24.69;60.38
59873;BME280;50750;51.636;4.948;2023-08-20T04:05:03;102284.27;;;24.68;60.48
59873;BME280;50750;51.636;4.948;2023-08-20T04:07:30;102285.00;;;24.68;60.39
59873;BME280;50750;51.636;4.948;2023-08-20T04:09:56;102286.61;;;24.68;60.40
59873;BME280;50750;51.636;4.948;2023-08-20T04:12:23;102291.14;;;24.67;60.34
59873;BME280;50750;51.636;4.948;2023-08-20T04:14:49;102289.73;;;24.67;60.36
59873;BME280;50750;51.636;4.948;2023-08-20T04:17:15;102294.42;;;24.66;60.48
59873;BME280;50750;51.636;4.948;2023-08-20T04:19:42;102296.26;;;24.66;60.23
59873;BME280;50750;51.636;4.948;2023-08-20T04:22:08;102302.73;;;24.65;60.32
59873;BME280;50750;51.636;4.948;2023-08-20T04:24:34;102306.73;;;24.64;60.38
59873;BME280;50750;51.636;4.948;2023-08-20T04:27:01;102304.42;;;24.64;60.51
59873;BME280;50750;51.636;4.948;2023-08-20T04:29:27;102310.36;;;24.64;60.43
59873;BME280;50750;51.636;4.948;2023-08-20T04:31:54;102308.85;;;24.62;60.40
59873;BME280;50750;51.636;4.948;2023-08-20T04:34:20;102313.52;;;24.62;60.49
59873;BME280;50750;51.636;4.948;2023-08-20T04:36:47;102307.48;;;24.61;60.45
59873;BME280;50750;51.636;4.948;2023-08-20T04:39:13;102310.01;;;24.61;60.45
59873;BME280;50750;51.636;4.948;2023-08-20T04:41:39;102313.81;;;24.60;60.46
59873;BME280;50750;51.636;4.948;2023-08-20T04:44:06;102315.67;;;24.59;60.40
59873;BME280;50750;51.636;4.948;2023-08-20T04:46:32;102310.48;;;24.59;60.41
59873;BME280;50750;51.636;4.948;2023-08-20T04:48:58;102317.51;;;24.59;60.51
59873;BME280;50750;51.636;4.948;2023-08-20T04:51:25;102317.16;;;24.59;60.55
59873;BME280;50750;51.636;4.948;2023-08-20T04:53:51;102322.15;;;24.59;60.52
59873;BME280;50750;51.636;4.948;2023-08-20T04:56:17;102321.56;;;24.59;60.41
59873;BME280;50750;51.636;4.948;2023-08-20T04:58:45;102323.66;;;24.60;60.54
59873;BME280;50750;51.636;4.948;2023-08-20T05:01:11;102320.77;;;24.61;60.42
59873;BME280;50750;51.636;4.948;2023-08-20T05:03:37;102324.31;;;24.61;60.51
59873;BME280;50750;51.636;4.948;2023-08-20T05:06:04;102332.20;;;24.61;60.34
59873;BME280;50750;51.636;4.948;2023-08-20T05:08:31;102333.96;;;24.61;60.35
59873;BME280;50750;51.636;4.948;2023-08-20T05:10:57;102336.66;;;24.61;60.36
59873;BME280;50750;51.636;4.948;2023-08-20T05:13:23;102336.14;;;24.61;60.38
59873;BME280;50750;51.636;4.948;2023-08-20T05:15:50;102341.88;;;24.61;60.30
59873;BME280;50750;51.636;4.948;2023-08-20T05:18:16;102340.29;;;24.61;60.38
59873;BME280;50750;51.636;4.948;2023-08-20T05:20:43;102342.61;;;24.61;60.43
59873;BME280;50750;51.636;4.948;2023-08-20T05:23:09;102341.61;;;24.60;60.24
59873;BME280;50750;51.636;4.948;2023-08-20T05:25:35;102340.19;;;24.60;60.42
59873;BME280;50750;51.636;4.948;2023-08-20T05:28:02;102339.88;;;24.59;60.34
59873;BME280;50750;51.636;4.948;2023-08-20T05:30:29;102340.81;;;24.58;60.42
59873;BME280;50750;51.636;4.948;2023-08-20T05:32:55;102338.69;;;24.58;60.50
59873;BME280;50750;51.636;4.948;2023-08-20T05:35:22;102340.37;;;24.57;60.33
59873;BME280;50750;51.636;4.948;2023-08-20T05:37:48;102347.60;;;24.56;60.45
59873;BME280;50750;51.636;4.948;2023-08-20T05:40:14;102354.42;;;24.56;60.43
59873;BME280;50750;51.636;4.948;2023-08-20T05:42:41;102352.13;;;24.55;60.44
59873;BME280;50750;51.636;4.948;2023-08-20T05:45:07;102350.89;;;24.55;60.61
59873;BME280;50750;51.636;4.948;2023-08-20T05:47:34;102349.52;;;24.54;60.52
59873;BME280;50750;51.636;4.948;2023-08-20T05:50:00;102352.72;;;24.54;60.61
59873;BME280;50750;51.636;4.948;2023-08-20T05:52:27;102351.80;;;24.55;60.43
59873;BME280;50750;51.636;4.948;2023-08-20T05:54:53;102349.98;;;24.55;60.51
59873;BME280;50750;51.636;4.948;2023-08-20T05:57:19;102348.34;;;24.55;60.51
59873;BME280;50750;51.636;4.948;2023-08-20T05:59:46;102349.75;;;24.56;60.44
59873;BME280;50750;51.636;4.948;2023-08-20T06:02:16;102350.63;;;24.56;60.46
59873;BME280;50750;51.636;4.948;2023-08-20T06:04:44;102350.92;;;24.57;60.37
59873;BME280;50750;51.636;4.948;2023-08-20T06:07:11;102350.33;;;24.58;60.37
59873;BME280;50750;51.636;4.948;2023-08-20T06:09:37;102347.95;;;24.59;60.34
59873;BME280;50750;51.636;4.948;2023-08-20T06:12:03;102348.48;;;24.59;60.34
59873;BME280;50750;51.636;4.948;2023-08-20T06:14:30;102351.33;;;24.59;60.25
59873;BME280;50750;51.636;4.948;2023-08-20T06:17:00;102351.50;;;24.59;60.41
59873;BME280;50750;51.636;4.948;2023-08-20T06:19:27;102350.81;;;24.59;60.29
59873;BME280;50750;51.636;4.948;2023-08-20T06:21:53;102359.41;;;24.59;60.24
59873;BME280;50750;51.636;4.948;2023-08-20T06:24:20;102358.38;;;24.58;60.27
59873;BME280;50750;51.636;4.948;2023-08-20T06:26:46;102354.98;;;24.58;60.36
59873;BME280;50750;51.636;4.948;2023-08-20T06:29:13;102355.38;;;24.57;60.23
59873;BME280;50750;51.636;4.948;2023-08-20T06:31:40;102350.41;;;24.57;60.26
59873;BME280;50750;51.636;4.948;2023-08-20T06:34:07;102347.03;;;24.56;60.33
59873;BME280;50750;51.636;4.948;2023-08-20T06:36:33;102350.30;;;24.56;60.40
59873;BME280;50750;51.636;4.948;2023-08-20T06:38:59;102351.60;;;24.55;60.23
59873;BME280;50750;51.636;4.948;2023-08-20T06:41:26;102355.58;;;24.54;60.26
59873;BME280;50750;51.636;4.948;2023-08-20T06:43:52;102356.35;;;24.54;60.36
59873;BME280;50750;51.636;4.948;2023-08-20T06:46:19;102354.94;;;24.53;60.31
59873;BME280;50750;51.636;4.948;2023-08-20T06:48:45;102356.61;;;24.52;60.31
59873;BME280;50750;51.636;4.948;2023-08-20T06:51:12;102358.96;;;24.52;60.44
59873;BME280;50750;51.636;4.948;2023-08-20T06:53:39;102359.18;;;24.51;60.36
59873;BME280;50750;51.636;4.948;2023-08-20T06:56:10;102364.05;;;24.51;60.39
59873;BME280;50750;51.636;4.948;2023-08-20T06:58:41;102363.17;;;24.51;60.39
59873;BME280;50750;51.636;4.948;2023-08-20T07:01:08;102365.71;;;24.50;60.33
59873;BME280;50750;51.636;4.948;2023-08-20T07:03:39;102363.44;;;24.49;60.49
59873;BME280;50750;51.636;4.948;2023-08-20T07:06:06;102363.13;;;24.49;60.48
59873;BME280;50750;51.636;4.948;2023-08-20T07:08:33;102362.95;;;24.49;60.39
59873;BME280;50750;51.636;4.948;2023-08-20T07:10:59;102362.84;;;24.48;60.44
59873;BME280;50750;51.636;4.948;2023-08-20T07:13:26;102361.61;;;24.47;60.43
59873;BME280;50750;51.636;4.948;2023-08-20T07:15:52;102366.27;;;24.47;60.43
59873;BME280;50750;51.636;4.948;2023-08-20T07:18:19;102368.05;;;24.47;60.43
59873;BME280;50750;51.636;4.948;2023-08-20T07:20:45;102371.23;;;24.48;60.38
59873;BME280;50750;51.636;4.948;2023-08-20T07:23:12;102368.66;;;24.49;60.42
59873;BME280;50750;51.636;4.948;2023-08-20T07:25:40;102370.59;;;24.49;60.40
59873;BME280;50750;51.636;4.948;2023-08-20T07:28:08;102371.27;;;24.50;60.34
59873;BME280;50750;51.636;4.948;2023-08-20T07:30:35;102370.52;;;24.51;60.47
59873;BME280;50750;51.636;4.948;2023-08-20T07:33:03;102372.23;;;24.51;60.41
59873;BME280;50750;51.636;4.948;2023-08-20T07:35:29;102375.65;;;24.51;60.34
59873;BME280;50750;51.636;4.948;2023-08-20T07:37:56;102375.78;;;24.52;60.33
59873;BME280;50750;51.636;4.948;2023-08-20T07:40:22;102375.44;;;24.52;60.34
59873;BME280;50750;51.636;4.948;2023-08-20T07:42:49;102375.06;;;24.52;60.34
59873;BME280;50750;51.636;4.948;2023-08-20T07:45:16;102378.47;;;24.52;60.32
59873;BME280;50750;51.636;4.948;2023-08-20T07:47:43;102375.05;;;24.52;60.27
59873;BME280;50750;51.636;4.948;2023-08-20T07:50:09;102376.15;;;24.52;60.43
59873;BME280;50750;51.636;4.948;2023-08-20T07:52:35;102379.54;;;24.52;60.33
59873;BME280;50750;51.636;4.948;2023-08-20T07:55:02;102378.29;;;24.52;60.42
59873;BME280;50750;51.636;4.948;2023-08-20T07:57:28;102380.83;;;24.52;60.38
59873;BME280;50750;51.636;4.948;2023-08-20T07:59:55;102383.52;;;24.52;60.35
59873;BME280;50750;51.636;4.948;2023-08-20T08:02:21;102389.67;;;24.51;60.44
59873;BME280;50750;51.636;4.948;2023-08-20T08:04:48;102396.45;;;24.51;60.34
59873;BME280;50750;51.636;4.948;2023-08-20T08:07:14;102394.31;;;24.51;60.33
59873;BME280;50750;51.636;4.948;2023-08-20T08:09:41;102394.52;;;24.51;60.42
59873;BME280;50750;51.636;4.948;2023-08-20T08:12:07;102391.29;;;24.51;60.49
59873;BME280;50750;51.636;4.948;2023-08-20T08:14:34;102387.18;;;24.50;60.49
59873;BME280;50750;51.636;4.948;2023-08-20T08:17:00;102392.55;;;24.50;60.47
59873;BME280;50750;51.636;4.948;2023-08-20T08:19:27;102395.41;;;24.50;60.51
59873;BME280;50750;51.636;4.948;2023-08-20T08:21:54;102399.20;;;24.50;60.42
59873;BME280;50750;51.636;4.948;2023-08-20T08:24:20;102404.02;;;24.50;60.43
59873;BME280;50750;51.636;4.948;2023-08-20T08:26:46;102401.14;;;24.50;60.43
59873;BME280;50750;51.636;4.948;2023-08-20T08:29:13;102401.30;;;24.51;60.30
59873;BME280;50750;51.636;4.948;2023-08-20T08:31:39;102401.39;;;24.52;60.39
59873;BME280;50750;51.636;4.948;2023-08-20T08:34:06;102396.66;;;24.53;60.25
59873;BME280;50750;51.636;4.948;2023-08-20T08:36:32;102398.94;;;24.54;60.28
59873;BME280;50750;51.636;4.948;2023-08-20T08:38:58;102399.59;;;24.55;60.34
59873;BME280;50750;51.636;4.948;2023-08-20T08:41:26;102403.86;;;24.56;60.22
59873;BME280;50750;51.636;4.948;2023-08-20T08:43:55;102403.99;;;24.56;60.25
59873;BME280;50750;51.636;4.948;2023-08-20T08:46:23;102408.05;;;24.57;60.15
59873;BME280;50750;51.636;4.948;2023-08-20T08:48:51;102411.59;;;24.58;60.22
59873;BME280;50750;51.636;4.948;2023-08-20T08:51:18;102411.06;;;24.58;60.24
59873;BME280;50750;51.636;4.948;2023-08-20T08:53:46;102408.87;;;24.58;60.14
59873;BME280;50750;51.636;4.948;2023-08-20T08:56:13;102409.77;;;24.58;60.20
59873;BME280;50750;51.636;4.948;2023-08-20T08:58:39;102409.57;;;24.59;60.23
59873;BME280;50750;51.636;4.948;2023-08-20T09:01:05;102410.83;;;24.59;60.20
59873;BME280;50750;51.636;4.948;2023-08-20T09:03:32;102416.88;;;24.59;60.25
59873;BME280;50750;51.636;4.948;2023-08-20T09:06:00;102414.40;;;24.59;60.17
59873;BME280;50750;51.636;4.948;2023-08-20T09:08:27;102417.27;;;24.59;60.23
59873;BME280;50750;51.636;4.948;2023-08-20T09:10:56;102415.30;;;24.59;60.11
59873;BME280;50750;51.636;4.948;2023-08-20T09:13:35;102415.31;;;24.58;60.16
59873;BME280;50750;51.636;4.948;2023-08-20T09:16:08;102415.87;;;24.58;60.05
59873;BME280;50750;51.636;4.948;2023-08-20T09:18:44;102419.10;;;24.58;60.23
59873;BME280;50750;51.636;4.948;2023-08-20T09:21:11;102416.80;;;24.57;60.14
59873;BME280;50750;51.636;4.948;2023-08-20T09:23:38;102422.17;;;24.57;60.21
59873;BME280;50750;51.636;4.948;2023-08-20T09:26:07;102423.95;;;24.58;60.12
59873;BME280;50750;51.636;4.948;2023-08-20T09:28:44;102426.12;;;24.57;60.21
59873;BME280;50750;51.636;4.948;2023-08-20T09:31:12;102424.34;;;24.57;60.09
59873;BME280;50750;51.636;4.948;2023-08-20T09:33:52;102429.34;;;24.57;60.34
59873;BME280;50750;51.636;4.948;2023-08-20T09:36:30;102427.54;;;24.58;60.21
59873;BME280;50750;51.636;4.948;2023-08-20T09:38:57;102425.55;;;24.58;60.23
59873;BME280;50750;51.636;4.948;2023-08-20T09:41:24;102427.17;;;24.58;60.30
59873;BME280;50750;51.636;4.948;2023-08-20T09:43:58;102423.97;;;24.57;60.16
59873;BME280;50750;51.636;4.948;2023-08-20T09:46:27;102420.89;;;24.58;60.11
59873;BME280;50750;51.636;4.948;2023-08-20T09:48:57;102421.04;;;24.58;60.10
59873;BME280;50750;51.636;4.948;2023-08-20T09:51:26;102423.30;;;24.59;60.28
59873;BME280;50750;51.636;4.948;2023-08-20T09:54:06;102430.17;;;24.61;60.14
59873;BME280;50750;51.636;4.948;2023-08-20T09:56:38;102430.81;;;24.62;60.08
59873;BME280;50750;51.636;4.948;2023-08-20T09:59:06;102429.11;;;24.64;60.08
59873;BME280;50750;51.636;4.948;2023-08-20T10:01:32;102428.69;;;24.65;60.19
59873;BME280;50750;51.636;4.948;2023-08-20T10:03:59;102428.23;;;24.66;60.09
59873;BME280;50750;51.636;4.948;2023-08-20T10:06:27;102424.02;;;24.67;60.06
59873;BME280;50750;51.636;4.948;2023-08-20T10:08:55;102430.77;;;24.68;60.11
59873;BME280;50750;51.636;4.948;2023-08-20T10:11:22;102425.73;;;24.69;60.08
59873;BME280;50750;51.636;4.948;2023-08-20T10:13:49;102428.95;;;24.69;60.01
59873;BME280;50750;51.636;4.948;2023-08-20T10:16:19;102424.47;;;24.69;59.97
59873;BME280;50750;51.636;4.948;2023-08-20T10:18:48;102428.55;;;24.69;60.10
59873;BME280;50750;51.636;4.948;2023-08-20T10:21:14;102425.29;;;24.70;60.05
59873;BME280;50750;51.636;4.948;2023-08-20T10:23:41;102424.94;;;24.70;60.03
59873;BME280;50750;51.636;4.948;2023-08-20T10:26:10;102422.77;;;24.70;60.08
59873;BME280;50750;51.636;4.948;2023-08-20T10:28:37;102424.04;;;24.70;60.10
59873;BME280;50750;51.636;4.948;2023-08-20T10:31:08;102424.41;;;24.70;60.20
59873;BME280;50750;51.636;4.948;2023-08-20T10:33:37;102423.19;;;24.69;60.14
59873;BME280;50750;51.636;4.948;2023-08-20T10:36:15;102422.09;;;24.70;60.09
59873;BME280;50750;51.636;4.948;2023-08-20T10:38:44;102424.42;;;24.69;60.20
59873;BME280;50750;51.636;4.948;2023-08-20T10:41:11;102426.19;;;24.70;60.28
59873;BME280;50750;51.636;4.948;2023-08-20T10:43:40;102427.07;;;24.70;60.12
59873;BME280;50750;51.636;4.948;2023-08-20T10:46:16;102427.07;;;24.70;59.98
59873;BME280;50750;51.636;4.948;2023-08-20T10:48:51;102423.45;;;24.71;59.83
59873;BME280;50750;51.636;4.948;2023-08-20T10:51:24;102421.30;;;24.71;59.74
59873;BME280;50750;51.636;4.948;2023-08-20T10:56:48;102422.48;;;24.72;59.68
59873;BME280;50750;51.636;4.948;2023-08-20T10:59:26;102422.69;;;24.72;59.95
59873;BME280;50750;51.636;4.948;2023-08-20T11:01:55;102425.71;;;24.72;60.01
59873;BME280;50750;51.636;4.948;2023-08-20T11:04:24;102425.13;;;24.73;59.95
59873;BME280;50750;51.636;4.948;2023-08-20T11:06:55;102424.06;;;24.73;60.02
59873;BME280;50750;51.636;4.948;2023-08-20T11:09:27;102427.04;;;24.74;60.02
59873;BME280;50750;51.636;4.948;2023-08-20T11:11:55;102425.20;;;24.74;59.99
59873;BME280;50750;51.636;4.948;2023-08-20T11:14:22;102425.53;;;24.75;59.99
59873;BME280;50750;51.636;4.948;2023-08-20T11:16:49;102422.80;;;24.75;59.99
59873;BME280;50750;51.636;4.948;2023-08-20T11:19:19;102417.60;;;24.75;60.04
59873;BME280;50750;51.636;4.948;2023-08-20T11:21:47;102416.42;;;24.77;60.06
59873;BME280;50750;51.636;4.948;2023-08-20T11:24:14;102414.92;;;24.78;60.05
59873;BME280;50750;51.636;4.948;2023-08-20T11:26:42;102415.33;;;24.80;60.02
59873;BME280;50750;51.636;4.948;2023-08-20T11:29:10;102411.30;;;24.81;60.01
59873;BME280;50750;51.636;4.948;2023-08-20T11:31:38;102409.20;;;24.83;59.96
59873;BME280;50750;51.636;4.948;2023-08-20T11:34:06;102407.33;;;24.84;60.01
59873;BME280;50750;51.636;4.948;2023-08-20T11:36:34;102402.95;;;24.85;59.86
59873;BME280;50750;51.636;4.948;2023-08-20T11:39:01;102399.95;;;24.87;60.02
59873;BME280;50750;51.636;4.948;2023-08-20T11:41:28;102397.23;;;24.88;59.96
59873;BME280;50750;51.636;4.948;2023-08-20T11:43:55;102394.81;;;24.89;59.79
59873;BME280;50750;51.636;4.948;2023-08-20T11:46:23;102392.42;;;24.90;59.90
59873;BME280;50750;51.636;4.948;2023-08-20T11:51:43;102380.38;;;24.91;59.94
59873;BME280;50750;51.636;4.948;2023-08-20T11:54:14;102378.74;;;24.91;59.82
59873;BME280;50750;51.636;4.948;2023-08-20T11:56:50;102378.71;;;24.91;59.88
59873;BME280;50750;51.636;4.948;2023-08-20T11:59:19;102373.86;;;24.92;59.87
59873;BME280;50750;51.636;4.948;2023-08-20T12:01:54;102375.95;;;24.93;60.08
59873;BME280;50750;51.636;4.948;2023-08-20T12:04:24;102374.88;;;24.93;60.02
59873;BME280;50750;51.636;4.948;2023-08-20T12:07:14;102374.14;;;24.93;60.09
59873;BME280;50750;51.636;4.948;2023-08-20T12:09:41;102371.78;;;24.94;60.11
59873;BME280;50750;51.636;4.948;2023-08-20T12:12:08;102369.13;;;24.93;60.10
59873;BME280;50750;51.636;4.948;2023-08-20T12:14:36;102379.29;;;24.94;60.10
59873;BME280;50750;51.636;4.948;2023-08-20T12:17:02;102382.17;;;24.94;60.07
59873;BME280;50750;51.636;4.948;2023-08-20T12:19:32;102387.86;;;24.94;60.06
59873;BME280;50750;51.636;4.948;2023-08-20T12:21:58;102385.87;;;24.95;60.11
59873;BME280;50750;51.636;4.948;2023-08-20T12:24:25;102380.83;;;24.95;60.09
59873;BME280;50750;51.636;4.948;2023-08-20T12:26:52;102380.98;;;24.95;60.19
59873;BME280;50750;51.636;4.948;2023-08-20T12:29:19;102383.32;;;24.95;60.02
59873;BME280;50750;51.636;4.948;2023-08-20T12:31:46;102382.45;;;24.95;60.09
59873;BME280;50750;51.636;4.948;2023-08-20T12:34:12;102382.93;;;24.96;60.06
59873;BME280;50750;51.636;4.948;2023-08-20T12:36:39;102384.36;;;24.96;60.04
59873;BME280;50750;51.636;4.948;2023-08-20T12:39:05;102384.35;;;24.96;60.04
59873;BME280;50750;51.636;4.948;2023-08-20T12:41:32;102378.06;;;24.96;60.05
59873;BME280;50750;51.636;4.948;2023-08-20T12:43:59;102381.62;;;24.97;60.09
59873;BME280;50750;51.636;4.948;2023-08-20T12:46:25;102381.80;;;24.97;60.05
59873;BME280;50750;51.636;4.948;2023-08-20T12:48:52;102381.25;;;24.97;60.09
59873;BME280;50750;51.636;4.948;2023-08-20T12:51:18;102375.70;;;24.97;60.00
59873;BME280;50750;51.636;4.948;2023-08-20T12:53:45;102373.66;;;24.98;59.59
59873;BME280;50750;51.636;4.948;2023-08-20T12:56:11;102374.19;;;24.98;58.74
59873;BME280;50750;51.636;4.948;2023-08-20T12:58:38;102377.25;;;24.97;57.22
59873;BME280;50750;51.636;4.948;2023-08-20T13:01:04;102376.86;;;24.98;57.22
59873;BME280;50750;51.636;4.948;2023-08-20T13:03:31;102379.52;;;24.99;56.80
59873;BME280;50750;51.636;4.948;2023-08-20T13:05:58;102377.00;;;24.99;56.49
59873;BME280;50750;51.636;4.948;2023-08-20T13:08:25;102377.89;;;24.99;56.22